sensor_id;sensor_type;location;lat;lon;timestamp;P1;durP1;ratioP1;P2;durP2;ratioP2
23617;SDS011;18207;32.078;34.818;2023-03-11T00:01:34;2.10;;;1.90;;
23617;SDS011;18207;32.078;34.818;2023-03-11T00:04:06;3.55;;;2.13;;
23617;SDS011;18207;32.078;34.818;2023-03-11T00:06:36;2.10;;;1.88;;
23617;SDS011;18207;32.078;34.818;2023-03-11T00:09:07;2.92;;;2.05;;
23617;SDS011;18207;32.078;34.818;2023-03-11T00:11:37;2.70;;;2.13;;
23617;SDS011;18207;32.078;34.818;2023-03-11T00:14:07;2.67;;;1.83;;
23617;SDS011;18207;32.078;34.818;2023-03-11T00:16:39;2.85;;;2.00;;
23617;SDS011;18207;32.078;34.818;2023-03-11T00:19:10;2.00;;;1.90;;
23617;SDS011;18207;32.078;34.818;2023-03-11T00:21:41;2.05;;;1.85;;
23617;SDS011;18207;32.078;34.818;2023-03-11T00:24:10;1.80;;;1.70;;
23617;SDS011;18207;32.078;34.818;2023-03-11T00:26:40;2.00;;;1.80;;
23617;SDS011;18207;32.078;34.818;2023-03-11T00:29:11;3.28;;;2.10;;
23617;SDS011;18207;32.078;34.818;2023-03-11T00:31:42;2.67;;;2.22;;
23617;SDS011;18207;32.078;34.818;2023-03-11T00:34:13;1.95;;;1.80;;
23617;SDS011;18207;32.078;34.818;2023-03-11T00:36:43;1.88;;;1.75;;
23617;SDS011;18207;32.078;34.818;2023-03-11T00:39:13;3.00;;;1.75;;
23617;SDS011;18207;32.078;34.818;2023-03-11T00:41:43;2.40;;;1.95;;
23617;SDS011;18207;32.078;34.818;2023-03-11T00:44:13;2.92;;;2.10;;
23617;SDS011;18207;32.078;34.818;2023-03-11T00:46:45;2.40;;;2.00;;
23617;SDS011;18207;32.078;34.818;2023-03-11T00:49:15;2.53;;;2.05;;
23617;SDS011;18207;32.078;34.818;2023-03-11T00:51:45;2.28;;;2.08;;
23617;SDS011;18207;32.078;34.818;2023-03-11T00:54:15;2.20;;;2.00;;
23617;SDS011;18207;32.078;34.818;2023-03-11T00:56:46;2.60;;;2.10;;
23617;SDS011;18207;32.078;34.818;2023-03-11T00:59:16;2.95;;;1.90;;
23617;SDS011;18207;32.078;34.818;2023-03-11T01:01:48;2.28;;;2.08;;
23617;SDS011;18207;32.078;34.818;2023-03-11T01:04:17;2.70;;;2.00;;
23617;SDS011;18207;32.078;34.818;2023-03-11T01:06:47;1.90;;;1.77;;
23617;SDS011;18207;32.078;34.818;2023-03-11T01:09:17;3.58;;;1.90;;
23617;SDS011;18207;32.078;34.818;2023-03-11T01:11:48;1.83;;;1.70;;
23617;SDS011;18207;32.078;34.818;2023-03-11T01:14:18;2.38;;;1.80;;
23617;SDS011;18207;32.078;34.818;2023-03-11T01:16:50;1.80;;;1.70;;
23617;SDS011;18207;32.078;34.818;2023-03-11T01:19:22;2.58;;;1.83;;
23617;SDS011;18207;32.078;34.818;2023-03-11T01:21:52;2.45;;;1.83;;
23617;SDS011;18207;32.078;34.818;2023-03-11T01:24:23;1.88;;;1.77;;
23617;SDS011;18207;32.078;34.818;2023-03-11T01:26:52;2.00;;;1.80;;
23617;SDS011;18207;32.078;34.818;2023-03-11T01:29:22;1.90;;;1.80;;
23617;SDS011;18207;32.078;34.818;2023-03-11T01:31:55;1.83;;;1.67;;
23617;SDS011;18207;32.078;34.818;2023-03-11T01:34:25;2.53;;;1.83;;
23617;SDS011;18207;32.078;34.818;2023-03-11T01:36:55;1.77;;;1.67;;
23617;SDS011;18207;32.078;34.818;2023-03-11T01:39:25;1.85;;;1.67;;
23617;SDS011;18207;32.078;34.818;2023-03-11T01:41:55;1.75;;;1.65;;
23617;SDS011;18207;32.078;34.818;2023-03-11T01:44:25;1.60;;;1.50;;
23617;SDS011;18207;32.078;34.818;2023-03-11T01:50:08;1.98;;;1.70;;
23617;SDS011;18207;32.078;34.818;2023-03-11T01:52:41;1.77;;;1.50;;
23617;SDS011;18207;32.078;34.818;2023-03-11T01:55:13;2.40;;;1.80;;
23617;SDS011;18207;32.078;34.818;2023-03-11T01:57:46;3.00;;;1.80;;
23617;SDS011;18207;32.078;34.818;2023-03-11T02:00:20;1.67;;;1.58;;
23617;SDS011;18207;32.078;34.818;2023-03-11T02:02:53;2.80;;;1.83;;
23617;SDS011;18207;32.078;34.818;2023-03-11T02:05:28;2.08;;;1.67;;
23617;SDS011;18207;32.078;34.818;2023-03-11T02:07:59;1.70;;;1.60;;
23617;SDS011;18207;32.078;34.818;2023-03-11T02:10:29;2.03;;;1.70;;
23617;SDS011;18207;32.078;34.818;2023-03-11T02:12:59;1.88;;;1.55;;
23617;SDS011;18207;32.078;34.818;2023-03-11T02:15:32;1.70;;;1.60;;
23617;SDS011;18207;32.078;34.818;2023-03-11T02:18:07;2.17;;;1.70;;
23617;SDS011;18207;32.078;34.818;2023-03-11T02:20:45;2.00;;;1.60;;
23617;SDS011;18207;32.078;34.818;2023-03-11T02:23:23;1.98;;;1.40;;
23617;SDS011;18207;32.078;34.818;2023-03-11T02:26:03;1.63;;;1.27;;
23617;SDS011;18207;32.078;34.818;2023-03-11T02:28:44;1.75;;;1.45;;
23617;SDS011;18207;32.078;34.818;2023-03-11T02:31:17;2.08;;;1.70;;
23617;SDS011;18207;32.078;34.818;2023-03-11T02:33:49;1.92;;;1.70;;
23617;SDS011;18207;32.078;34.818;2023-03-11T02:36:31;1.92;;;1.65;;
23617;SDS011;18207;32.078;34.818;2023-03-11T02:39:04;1.58;;;1.48;;
23617;SDS011;18207;32.078;34.818;2023-03-11T02:41:36;2.40;;;1.73;;
23617;SDS011;18207;32.078;34.818;2023-03-11T02:44:12;2.33;;;1.60;;
23617;SDS011;18207;32.078;34.818;2023-03-11T02:46:44;1.73;;;1.60;;
23617;SDS011;18207;32.078;34.818;2023-03-11T02:49:15;1.83;;;1.73;;
23617;SDS011;18207;32.078;34.818;2023-03-11T02:51:47;2.10;;;1.50;;
23617;SDS011;18207;32.078;34.818;2023-03-11T02:54:18;1.65;;;1.55;;
23617;SDS011;18207;32.078;34.818;2023-03-11T02:56:48;1.77;;;1.55;;
23617;SDS011;18207;32.078;34.818;2023-03-11T02:59:20;2.78;;;1.63;;
23617;SDS011;18207;32.078;34.818;2023-03-11T03:01:50;2.00;;;1.55;;
23617;SDS011;18207;32.078;34.818;2023-03-11T03:04:20;1.98;;;1.60;;
23617;SDS011;18207;32.078;34.818;2023-03-11T03:06:50;1.75;;;1.60;;
23617;SDS011;18207;32.078;34.818;2023-03-11T03:09:21;1.80;;;1.60;;
23617;SDS011;18207;32.078;34.818;2023-03-11T03:11:51;2.05;;;1.60;;
23617;SDS011;18207;32.078;34.818;2023-03-11T03:14:23;1.75;;;1.45;;
23617;SDS011;18207;32.078;34.818;2023-03-11T03:16:53;1.65;;;1.40;;
23617;SDS011;18207;32.078;34.818;2023-03-11T03:19:23;1.50;;;1.40;;
23617;SDS011;18207;32.078;34.818;2023-03-11T03:21:53;1.50;;;1.40;;
23617;SDS011;18207;32.078;34.818;2023-03-11T03:24:24;1.60;;;1.50;;
23617;SDS011;18207;32.078;34.818;2023-03-11T03:26:54;1.50;;;1.40;;
23617;SDS011;18207;32.078;34.818;2023-03-11T03:29:27;1.38;;;1.27;;
23617;SDS011;18207;32.078;34.818;2023-03-11T03:31:57;1.50;;;1.40;;
23617;SDS011;18207;32.078;34.818;2023-03-11T03:34:27;1.58;;;1.38;;
23617;SDS011;18207;32.078;34.818;2023-03-11T03:36:57;2.75;;;1.52;;
23617;SDS011;18207;32.078;34.818;2023-03-11T03:39:28;1.60;;;1.48;;
23617;SDS011;18207;32.078;34.818;2023-03-11T03:41:58;1.60;;;1.50;;
23617;SDS011;18207;32.078;34.818;2023-03-11T03:44:31;1.73;;;1.60;;
23617;SDS011;18207;32.078;34.818;2023-03-11T03:47:01;1.85;;;1.40;;
23617;SDS011;18207;32.078;34.818;2023-03-11T03:49:31;1.40;;;1.30;;
23617;SDS011;18207;32.078;34.818;2023-03-11T03:52:01;1.27;;;1.17;;
23617;SDS011;18207;32.078;34.818;2023-03-11T03:54:34;1.40;;;1.30;;
23617;SDS011;18207;32.078;34.818;2023-03-11T03:57:04;1.63;;;1.35;;
23617;SDS011;18207;32.078;34.818;2023-03-11T03:59:36;1.30;;;1.20;;
23617;SDS011;18207;32.078;34.818;2023-03-11T04:02:06;1.60;;;1.17;;
23617;SDS011;18207;32.078;34.818;2023-03-11T04:04:36;1.60;;;1.35;;
23617;SDS011;18207;32.078;34.818;2023-03-11T04:07:06;1.38;;;1.27;;
23617;SDS011;18207;32.078;34.818;2023-03-11T04:09:38;1.80;;;1.15;;
23617;SDS011;18207;32.078;34.818;2023-03-11T04:12:09;2.60;;;1.58;;
23617;SDS011;18207;32.078;34.818;2023-03-11T04:14:44;1.55;;;1.25;;
23617;SDS011;18207;32.078;34.818;2023-03-11T04:17:14;1.35;;;1.25;;
23617;SDS011;18207;32.078;34.818;2023-03-11T04:19:44;1.85;;;1.40;;
23617;SDS011;18207;32.078;34.818;2023-03-11T04:22:15;1.85;;;1.23;;
23617;SDS011;18207;32.078;34.818;2023-03-11T04:24:45;1.95;;;1.27;;
23617;SDS011;18207;32.078;34.818;2023-03-11T04:27:15;1.58;;;1.48;;
23617;SDS011;18207;32.078;34.818;2023-03-11T04:29:47;1.60;;;1.20;;
23617;SDS011;18207;32.078;34.818;2023-03-11T04:32:17;1.42;;;1.30;;
23617;SDS011;18207;32.078;34.818;2023-03-11T04:34:48;1.70;;;1.25;;
23617;SDS011;18207;32.078;34.818;2023-03-11T04:37:18;2.15;;;1.55;;
23617;SDS011;18207;32.078;34.818;2023-03-11T04:39:49;1.67;;;1.58;;
23617;SDS011;18207;32.078;34.818;2023-03-11T04:42:20;1.58;;;1.48;;
23617;SDS011;18207;32.078;34.818;2023-03-11T04:44:52;1.85;;;1.38;;
23617;SDS011;18207;32.078;34.818;2023-03-11T04:47:23;2.38;;;1.20;;
23617;SDS011;18207;32.078;34.818;2023-03-11T04:49:53;1.48;;;1.38;;
23617;SDS011;18207;32.078;34.818;2023-03-11T04:52:23;1.55;;;1.30;;
23617;SDS011;18207;32.078;34.818;2023-03-11T04:54:53;1.38;;;1.23;;
23617;SDS011;18207;32.078;34.818;2023-03-11T04:57:22;1.40;;;1.30;;
23617;SDS011;18207;32.078;34.818;2023-03-11T04:59:55;1.65;;;1.48;;
23617;SDS011;18207;32.078;34.818;2023-03-11T05:02:25;2.03;;;1.73;;
23617;SDS011;18207;32.078;34.818;2023-03-11T05:04:55;1.60;;;1.50;;
23617;SDS011;18207;32.078;34.818;2023-03-11T05:07:25;2.53;;;1.90;;
23617;SDS011;18207;32.078;34.818;2023-03-11T05:09:56;1.83;;;1.60;;
23617;SDS011;18207;32.078;34.818;2023-03-11T05:12:26;2.42;;;1.67;;
23617;SDS011;18207;32.078;34.818;2023-03-11T05:14:58;1.75;;;1.65;;
23617;SDS011;18207;32.078;34.818;2023-03-11T05:17:28;1.70;;;1.58;;
23617;SDS011;18207;32.078;34.818;2023-03-11T05:20:00;2.10;;;1.80;;
23617;SDS011;18207;32.078;34.818;2023-03-11T05:22:32;1.83;;;1.73;;
23617;SDS011;18207;32.078;34.818;2023-03-11T05:25:03;1.95;;;1.77;;
23617;SDS011;18207;32.078;34.818;2023-03-11T05:27:34;2.08;;;1.85;;
23617;SDS011;18207;32.078;34.818;2023-03-11T05:30:09;1.83;;;1.63;;
23617;SDS011;18207;32.078;34.818;2023-03-11T05:32:41;1.95;;;1.65;;
23617;SDS011;18207;32.078;34.818;2023-03-11T05:35:12;2.10;;;1.85;;
23617;SDS011;18207;32.078;34.818;2023-03-11T05:37:42;2.50;;;2.00;;
23617;SDS011;18207;32.078;34.818;2023-03-11T05:40:15;2.30;;;2.10;;
23617;SDS011;18207;32.078;34.818;2023-03-11T05:42:46;2.03;;;1.83;;
23617;SDS011;18207;32.078;34.818;2023-03-11T05:45:19;2.67;;;1.83;;
23617;SDS011;18207;32.078;34.818;2023-03-11T05:47:50;2.00;;;1.90;;
23617;SDS011;18207;32.078;34.818;2023-03-11T05:50:21;2.92;;;1.75;;
23617;SDS011;18207;32.078;34.818;2023-03-11T05:52:51;2.25;;;1.95;;
23617;SDS011;18207;32.078;34.818;2023-03-11T05:55:21;1.70;;;1.55;;
23617;SDS011;18207;32.078;34.818;2023-03-11T05:57:52;2.30;;;1.60;;
23617;SDS011;18207;32.078;34.818;2023-03-11T06:00:24;2.17;;;1.92;;
23617;SDS011;18207;32.078;34.818;2023-03-11T06:02:55;2.30;;;1.70;;
23617;SDS011;18207;32.078;34.818;2023-03-11T06:05:25;1.98;;;1.65;;
23617;SDS011;18207;32.078;34.818;2023-03-11T06:07:55;1.85;;;1.70;;
23617;SDS011;18207;32.078;34.818;2023-03-11T06:10:26;1.80;;;1.52;;
23617;SDS011;18207;32.078;34.818;2023-03-11T06:12:56;1.73;;;1.63;;
23617;SDS011;18207;32.078;34.818;2023-03-11T06:15:28;1.85;;;1.60;;
23617;SDS011;18207;32.078;34.818;2023-03-11T06:18:00;2.13;;;1.40;;
23617;SDS011;18207;32.078;34.818;2023-03-11T06:20:31;1.58;;;1.48;;
23617;SDS011;18207;32.078;34.818;2023-03-11T06:23:03;1.52;;;1.40;;
23617;SDS011;18207;32.078;34.818;2023-03-11T06:25:33;1.90;;;1.70;;
23617;SDS011;18207;32.078;34.818;2023-03-11T06:28:03;2.60;;;1.73;;
23617;SDS011;18207;32.078;34.818;2023-03-11T06:30:35;1.67;;;1.58;;
23617;SDS011;18207;32.078;34.818;2023-03-11T06:33:05;1.73;;;1.60;;
23617;SDS011;18207;32.078;34.818;2023-03-11T06:35:35;1.50;;;1.40;;
23617;SDS011;18207;32.078;34.818;2023-03-11T06:38:06;1.55;;;1.45;;
23617;SDS011;18207;32.078;34.818;2023-03-11T06:40:37;1.60;;;1.50;;
23617;SDS011;18207;32.078;34.818;2023-03-11T06:43:07;1.85;;;1.48;;
23617;SDS011;18207;32.078;34.818;2023-03-11T06:45:38;2.72;;;1.60;;
23617;SDS011;18207;32.078;34.818;2023-03-11T06:48:09;1.70;;;1.60;;
23617;SDS011;18207;32.078;34.818;2023-03-11T06:50:39;1.38;;;1.27;;
23617;SDS011;18207;32.078;34.818;2023-03-11T06:53:09;1.90;;;1.48;;
23617;SDS011;18207;32.078;34.818;2023-03-11T06:55:39;1.35;;;1.25;;
23617;SDS011;18207;32.078;34.818;2023-03-11T06:58:09;1.83;;;1.52;;
23617;SDS011;18207;32.078;34.818;2023-03-11T07:00:42;2.58;;;1.40;;
23617;SDS011;18207;32.078;34.818;2023-03-11T07:03:11;1.20;;;1.02;;
23617;SDS011;18207;32.078;34.818;2023-03-11T07:05:42;1.10;;;1.00;;
23617;SDS011;18207;32.078;34.818;2023-03-11T07:08:12;2.13;;;1.17;;
23617;SDS011;18207;32.078;34.818;2023-03-11T07:10:43;1.40;;;1.20;;
23617;SDS011;18207;32.078;34.818;2023-03-11T07:13:14;1.00;;;1.00;;
23617;SDS011;18207;32.078;34.818;2023-03-11T07:15:46;1.67;;;1.05;;
23617;SDS011;18207;32.078;34.818;2023-03-11T07:18:16;1.15;;;1.05;;
23617;SDS011;18207;32.078;34.818;2023-03-11T07:20:46;1.20;;;1.10;;
23617;SDS011;18207;32.078;34.818;2023-03-11T07:23:17;0.90;;;0.90;;
23617;SDS011;18207;32.078;34.818;2023-03-11T07:25:47;0.85;;;0.80;;
23617;SDS011;18207;32.078;34.818;2023-03-11T07:28:18;0.85;;;0.82;;
23617;SDS011;18207;32.078;34.818;2023-03-11T07:30:50;0.93;;;0.93;;
23617;SDS011;18207;32.078;34.818;2023-03-11T07:33:21;0.95;;;0.95;;
23617;SDS011;18207;32.078;34.818;2023-03-11T07:35:52;1.00;;;0.90;;
23617;SDS011;18207;32.078;34.818;2023-03-11T07:38:22;0.98;;;0.88;;
23617;SDS011;18207;32.078;34.818;2023-03-11T07:40:56;1.00;;;0.90;;
23617;SDS011;18207;32.078;34.818;2023-03-11T07:43:27;1.52;;;1.08;;
23617;SDS011;18207;32.078;34.818;2023-03-11T07:46:06;0.60;;;0.60;;
23617;SDS011;18207;32.078;34.818;2023-03-11T07:48:39;1.23;;;1.00;;
23617;SDS011;18207;32.078;34.818;2023-03-11T07:51:10;0.80;;;0.80;;
23617;SDS011;18207;32.078;34.818;2023-03-11T07:53:43;1.02;;;0.93;;
23617;SDS011;18207;32.078;34.818;2023-03-11T07:56:14;1.20;;;0.65;;
23617;SDS011;18207;32.078;34.818;2023-03-11T07:58:46;0.70;;;0.70;;
23617;SDS011;18207;32.078;34.818;2023-03-11T08:01:18;0.80;;;0.80;;
23617;SDS011;18207;32.078;34.818;2023-03-11T08:03:52;0.70;;;0.70;;
23617;SDS011;18207;32.078;34.818;2023-03-11T08:06:25;0.80;;;0.80;;
23617;SDS011;18207;32.078;34.818;2023-03-11T08:08:58;1.35;;;0.90;;
23617;SDS011;18207;32.078;34.818;2023-03-11T08:11:31;0.95;;;0.85;;
23617;SDS011;18207;32.078;34.818;2023-03-11T08:14:01;0.82;;;0.82;;
23617;SDS011;18207;32.078;34.818;2023-03-11T08:16:34;0.85;;;0.73;;
23617;SDS011;18207;32.078;34.818;2023-03-11T08:19:09;0.90;;;0.88;;
23617;SDS011;18207;32.078;34.818;2023-03-11T08:21:40;0.80;;;0.60;;
23617;SDS011;18207;32.078;34.818;2023-03-11T08:24:11;0.68;;;0.63;;
23617;SDS011;18207;32.078;34.818;2023-03-11T08:26:42;1.20;;;1.08;;
23617;SDS011;18207;32.078;34.818;2023-03-11T08:29:12;0.73;;;0.70;;
23617;SDS011;18207;32.078;34.818;2023-03-11T08:31:44;1.00;;;0.90;;
23617;SDS011;18207;32.078;34.818;2023-03-11T08:34:15;1.50;;;1.10;;
23617;SDS011;18207;32.078;34.818;2023-03-11T08:36:47;0.95;;;0.85;;
23617;SDS011;18207;32.078;34.818;2023-03-11T08:39:17;1.00;;;1.00;;
23617;SDS011;18207;32.078;34.818;2023-03-11T08:41:47;1.60;;;1.02;;
23617;SDS011;18207;32.078;34.818;2023-03-11T08:44:16;1.40;;;1.15;;
23617;SDS011;18207;32.078;34.818;2023-03-11T08:46:48;1.40;;;1.13;;
23617;SDS011;18207;32.078;34.818;2023-03-11T08:49:19;1.80;;;1.50;;
23617;SDS011;18207;32.078;34.818;2023-03-11T08:51:50;1.30;;;1.20;;
23617;SDS011;18207;32.078;34.818;2023-03-11T08:54:21;1.67;;;1.30;;
23617;SDS011;18207;32.078;34.818;2023-03-11T08:56:51;1.48;;;1.38;;
23617;SDS011;18207;32.078;34.818;2023-03-11T08:59:21;2.13;;;1.42;;
23617;SDS011;18207;32.078;34.818;2023-03-11T09:01:53;1.85;;;1.55;;
23617;SDS011;18207;32.078;34.818;2023-03-11T09:04:24;1.30;;;1.20;;
23617;SDS011;18207;32.078;34.818;2023-03-11T09:06:54;1.08;;;1.05;;
23617;SDS011;18207;32.078;34.818;2023-03-11T09:09:24;2.63;;;1.13;;
23617;SDS011;18207;32.078;34.818;2023-03-11T09:11:54;1.17;;;1.02;;
23617;SDS011;18207;32.078;34.818;2023-03-11T09:14:24;1.48;;;1.33;;
23617;SDS011;18207;32.078;34.818;2023-03-11T09:16:56;1.23;;;1.05;;
23617;SDS011;18207;32.078;34.818;2023-03-11T09:19:27;1.08;;;1.00;;
23617;SDS011;18207;32.078;34.818;2023-03-11T09:21:58;1.42;;;1.08;;
23617;SDS011;18207;32.078;34.818;2023-03-11T09:24:29;1.40;;;1.13;;
23617;SDS011;18207;32.078;34.818;2023-03-11T09:27:02;0.90;;;0.90;;
23617;SDS011;18207;32.078;34.818;2023-03-11T09:29:32;1.10;;;1.00;;
23617;SDS011;18207;32.078;34.818;2023-03-11T09:32:05;0.85;;;0.85;;
23617;SDS011;18207;32.078;34.818;2023-03-11T09:34:35;0.60;;;0.60;;
23617;SDS011;18207;32.078;34.818;2023-03-11T09:37:05;1.15;;;0.75;;
23617;SDS011;18207;32.078;34.818;2023-03-11T09:39:36;0.82;;;0.82;;
23617;SDS011;18207;32.078;34.818;2023-03-11T09:42:10;0.63;;;0.63;;
23617;SDS011;18207;32.078;34.818;2023-03-11T09:44:52;1.17;;;0.80;;
23617;SDS011;18207;32.078;34.818;2023-03-11T09:47:40;1.13;;;0.77;;
23617;SDS011;18207;32.078;34.818;2023-03-11T09:50:38;0.65;;;0.65;;
23617;SDS011;18207;32.078;34.818;2023-03-11T09:53:20;0.95;;;0.77;;
23617;SDS011;18207;32.078;34.818;2023-03-11T09:56:05;0.70;;;0.70;;
23617;SDS011;18207;32.078;34.818;2023-03-11T09:58:38;0.75;;;0.63;;
23617;SDS011;18207;32.078;34.818;2023-03-11T10:01:16;0.52;;;0.52;;
23617;SDS011;18207;32.078;34.818;2023-03-11T10:03:56;0.80;;;0.80;;
23617;SDS011;18207;32.078;34.818;2023-03-11T10:06:36;2.72;;;0.93;;
23617;SDS011;18207;32.078;34.818;2023-03-11T10:09:13;1.40;;;0.77;;
23617;SDS011;18207;32.078;34.818;2023-03-11T10:12:08;0.68;;;0.68;;
23617;SDS011;18207;32.078;34.818;2023-03-11T10:14:59;0.80;;;0.80;;
23617;SDS011;18207;32.078;34.818;2023-03-11T10:17:52;1.42;;;1.00;;
23617;SDS011;18207;32.078;34.818;2023-03-11T10:20:54;0.77;;;0.75;;
23617;SDS011;18207;32.078;34.818;2023-03-11T10:23:33;1.00;;;0.90;;
23617;SDS011;18207;32.078;34.818;2023-03-11T10:26:25;0.50;;;0.50;;
23617;SDS011;18207;32.078;34.818;2023-03-11T10:29:06;1.05;;;0.85;;
23617;SDS011;18207;32.078;34.818;2023-03-11T10:31:46;1.30;;;0.80;;
23617;SDS011;18207;32.078;34.818;2023-03-11T10:34:27;2.28;;;1.05;;
23617;SDS011;18207;32.078;34.818;2023-03-11T10:37:10;0.70;;;0.70;;
23617;SDS011;18207;32.078;34.818;2023-03-11T10:39:46;1.02;;;0.68;;
23617;SDS011;18207;32.078;34.818;2023-03-11T10:42:16;1.58;;;1.08;;
23617;SDS011;18207;32.078;34.818;2023-03-11T10:44:53;1.45;;;0.90;;
23617;SDS011;18207;32.078;34.818;2023-03-11T10:47:23;0.90;;;0.90;;
23617;SDS011;18207;32.078;34.818;2023-03-11T10:49:53;1.92;;;1.08;;
23617;SDS011;18207;32.078;34.818;2023-03-11T10:52:25;0.95;;;0.85;;
23617;SDS011;18207;32.078;34.818;2023-03-11T10:54:58;1.35;;;1.25;;
23617;SDS011;18207;32.078;34.818;2023-03-11T10:57:31;1.13;;;0.70;;
23617;SDS011;18207;32.078;34.818;2023-03-11T11:00:05;1.40;;;0.80;;
23617;SDS011;18207;32.078;34.818;2023-03-11T11:02:48;0.98;;;0.93;;
23617;SDS011;18207;32.078;34.818;2023-03-11T11:05:26;0.70;;;0.70;;
23617;SDS011;18207;32.078;34.818;2023-03-11T11:08:06;1.00;;;0.82;;
23617;SDS011;18207;32.078;34.818;2023-03-11T11:10:48;0.55;;;0.55;;
23617;SDS011;18207;32.078;34.818;2023-03-11T11:13:21;1.15;;;0.80;;
23617;SDS011;18207;32.078;34.818;2023-03-11T11:15:54;1.00;;;0.90;;
23617;SDS011;18207;32.078;34.818;2023-03-11T11:18:29;1.20;;;1.05;;
23617;SDS011;18207;32.078;34.818;2023-03-11T11:21:05;1.17;;;1.08;;
23617;SDS011;18207;32.078;34.818;2023-03-11T11:23:43;1.25;;;0.98;;
23617;SDS011;18207;32.078;34.818;2023-03-11T11:26:19;0.93;;;0.90;;
23617;SDS011;18207;32.078;34.818;2023-03-11T11:29:04;1.08;;;0.95;;
23617;SDS011;18207;32.078;34.818;2023-03-11T11:31:43;1.13;;;0.98;;
23617;SDS011;18207;32.078;34.818;2023-03-11T11:34:27;1.27;;;0.80;;
23617;SDS011;18207;32.078;34.818;2023-03-11T11:37:00;1.95;;;0.90;;
23617;SDS011;18207;32.078;34.818;2023-03-11T11:39:39;1.13;;;0.98;;
23617;SDS011;18207;32.078;34.818;2023-03-11T11:42:17;1.30;;;1.20;;
23617;SDS011;18207;32.078;34.818;2023-03-11T11:44:50;1.40;;;1.23;;
23617;SDS011;18207;32.078;34.818;2023-03-11T11:47:26;1.40;;;1.05;;
23617;SDS011;18207;32.078;34.818;2023-03-11T11:50:05;2.55;;;1.58;;
23617;SDS011;18207;32.078;34.818;2023-03-11T11:52:45;2.03;;;1.70;;
23617;SDS011;18207;32.078;34.818;2023-03-11T11:55:24;2.00;;;1.50;;
23617;SDS011;18207;32.078;34.818;2023-03-11T11:57:58;1.67;;;1.58;;
23617;SDS011;18207;32.078;34.818;2023-03-11T12:00:29;1.60;;;1.50;;
23617;SDS011;18207;32.078;34.818;2023-03-11T12:03:18;1.60;;;1.42;;
23617;SDS011;18207;32.078;34.818;2023-03-11T12:06:14;1.52;;;1.20;;
23617;SDS011;18207;32.078;34.818;2023-03-11T12:08:56;1.20;;;1.10;;
23617;SDS011;18207;32.078;34.818;2023-03-11T12:11:43;1.23;;;1.13;;
23617;SDS011;18207;32.078;34.818;2023-03-11T12:14:23;2.17;;;1.20;;
23617;SDS011;18207;32.078;34.818;2023-03-11T12:17:03;1.33;;;1.10;;
23617;SDS011;18207;32.078;34.818;2023-03-11T12:19:38;1.63;;;1.10;;
23617;SDS011;18207;32.078;34.818;2023-03-11T12:22:22;1.10;;;1.00;;
23617;SDS011;18207;32.078;34.818;2023-03-11T12:25:32;1.08;;;1.08;;
23617;SDS011;18207;32.078;34.818;2023-03-11T12:28:18;0.80;;;0.80;;
23617;SDS011;18207;32.078;34.818;2023-03-11T12:30:55;1.30;;;1.10;;
23617;SDS011;18207;32.078;34.818;2023-03-11T12:33:41;1.20;;;1.00;;
23617;SDS011;18207;32.078;34.818;2023-03-11T12:36:19;0.80;;;0.80;;
23617;SDS011;18207;32.078;34.818;2023-03-11T12:38:53;1.00;;;0.93;;
23617;SDS011;18207;32.078;34.818;2023-03-11T12:41:28;0.75;;;0.75;;
23617;SDS011;18207;32.078;34.818;2023-03-11T12:44:19;1.25;;;0.95;;
23617;SDS011;18207;32.078;34.818;2023-03-11T12:53:08;0.85;;;0.75;;
23617;SDS011;18207;32.078;34.818;2023-03-11T12:55:56;1.55;;;1.10;;
23617;SDS011;18207;32.078;34.818;2023-03-11T13:04:54;0.88;;;0.88;;
23617;SDS011;18207;32.078;34.818;2023-03-11T13:07:38;1.45;;;0.73;;
23617;SDS011;18207;32.078;34.818;2023-03-11T13:10:20;1.75;;;1.20;;
23617;SDS011;18207;32.078;34.818;2023-03-11T13:25:42;4.20;;;3.63;;
23617;SDS011;18207;32.078;34.818;2023-03-11T13:32:23;2.90;;;2.60;;
23617;SDS011;18207;32.078;34.818;2023-03-11T13:35:15;2.63;;;2.40;;
23617;SDS011;18207;32.078;34.818;2023-03-11T13:38:12;2.33;;;2.10;;
23617;SDS011;18207;32.078;34.818;2023-03-11T13:41:12;2.20;;;1.98;;
23617;SDS011;18207;32.078;34.818;2023-03-11T13:43:48;2.33;;;2.00;;
23617;SDS011;18207;32.078;34.818;2023-03-11T13:46:23;2.08;;;1.83;;
23617;SDS011;18207;32.078;34.818;2023-03-11T13:49:02;2.00;;;1.80;;
23617;SDS011;18207;32.078;34.818;2023-03-11T13:51:41;3.40;;;1.88;;
23617;SDS011;18207;32.078;34.818;2023-03-11T13:54:25;1.67;;;1.58;;
23617;SDS011;18207;32.078;34.818;2023-03-11T13:57:10;1.67;;;1.58;;
23617;SDS011;18207;32.078;34.818;2023-03-11T13:59:54;1.52;;;1.42;;
23617;SDS011;18207;32.078;34.818;2023-03-11T14:02:26;1.77;;;1.30;;
23617;SDS011;18207;32.078;34.818;2023-03-11T14:04:57;1.65;;;1.10;;
23617;SDS011;18207;32.078;34.818;2023-03-11T14:07:35;1.38;;;1.27;;
23617;SDS011;18207;32.078;34.818;2023-03-11T14:13:06;1.67;;;1.00;;
23617;SDS011;18207;32.078;34.818;2023-03-11T14:15:47;0.90;;;0.90;;
23617;SDS011;18207;32.078;34.818;2023-03-11T14:18:28;2.80;;;1.23;;
23617;SDS011;18207;32.078;34.818;2023-03-11T14:21:06;1.13;;;0.80;;
23617;SDS011;18207;32.078;34.818;2023-03-11T14:23:44;1.40;;;1.00;;
23617;SDS011;18207;32.078;34.818;2023-03-11T14:26:18;1.15;;;1.05;;
23617;SDS011;18207;32.078;34.818;2023-03-11T14:28:52;1.80;;;1.30;;
23617;SDS011;18207;32.078;34.818;2023-03-11T14:31:30;1.40;;;1.10;;
23617;SDS011;18207;32.078;34.818;2023-03-11T14:34:03;1.40;;;1.20;;
23617;SDS011;18207;32.078;34.818;2023-03-11T14:36:42;1.10;;;1.00;;
23617;SDS011;18207;32.078;34.818;2023-03-11T14:39:23;1.13;;;1.00;;
23617;SDS011;18207;32.078;34.818;2023-03-11T14:41:58;1.45;;;1.08;;
23617;SDS011;18207;32.078;34.818;2023-03-11T14:44:36;1.45;;;1.10;;
23617;SDS011;18207;32.078;34.818;2023-03-11T14:47:10;0.70;;;0.70;;
23617;SDS011;18207;32.078;34.818;2023-03-11T14:49:49;0.90;;;0.90;;
23617;SDS011;18207;32.078;34.818;2023-03-11T14:52:22;1.45;;;1.00;;
23617;SDS011;18207;32.078;34.818;2023-03-11T14:55:09;1.00;;;0.90;;
23617;SDS011;18207;32.078;34.818;2023-03-11T14:57:46;1.85;;;0.88;;
23617;SDS011;18207;32.078;34.818;2023-03-11T15:00:21;0.80;;;0.80;;
23617;SDS011;18207;32.078;34.818;2023-03-11T15:03:00;0.63;;;0.63;;
23617;SDS011;18207;32.078;34.818;2023-03-11T15:05:46;1.58;;;0.90;;
23617;SDS011;18207;32.078;34.818;2023-03-11T15:08:21;1.00;;;0.98;;
23617;SDS011;18207;32.078;34.818;2023-03-11T15:11:03;0.95;;;0.80;;
23617;SDS011;18207;32.078;34.818;2023-03-11T15:13:54;1.27;;;1.00;;
23617;SDS011;18207;32.078;34.818;2023-03-11T15:16:49;0.90;;;0.90;;
23617;SDS011;18207;32.078;34.818;2023-03-11T15:19:30;1.83;;;0.98;;
23617;SDS011;18207;32.078;34.818;2023-03-11T15:22:04;0.70;;;0.70;;
23617;SDS011;18207;32.078;34.818;2023-03-11T15:24:52;0.93;;;0.80;;
23617;SDS011;18207;32.078;34.818;2023-03-11T15:30:17;1.35;;;0.70;;
23617;SDS011;18207;32.078;34.818;2023-03-11T15:32:50;0.85;;;0.82;;
23617;SDS011;18207;32.078;34.818;2023-03-11T15:35:22;0.80;;;0.80;;
23617;SDS011;18207;32.078;34.818;2023-03-11T15:40:48;1.58;;;1.20;;
23617;SDS011;18207;32.078;34.818;2023-03-11T15:43:26;1.02;;;0.98;;
23617;SDS011;18207;32.078;34.818;2023-03-11T15:45:58;1.08;;;0.90;;
23617;SDS011;18207;32.078;34.818;2023-03-11T15:48:31;0.82;;;0.82;;
23617;SDS011;18207;32.078;34.818;2023-03-11T15:51:02;1.15;;;1.00;;
23617;SDS011;18207;32.078;34.818;2023-03-11T15:53:32;1.20;;;1.10;;
23617;SDS011;18207;32.078;34.818;2023-03-11T15:56:06;1.20;;;1.08;;